Time;durP1;ratioP1;P1;durP2;ratioP2;P2;SDS_P1;SDS_P2;PMS_P1;PMS_P2;Temp;Humidity;BMP_temperature;BMP_pressure;BME280_temperature;BME280_humidity;BME280_pressure;Samples;Min_cycle;Max_cycle;Signal;HPM_P1;HPM_P2
2022/11/06 00:02:11;;;;;;;10.43;5.88;;;;;;;8.20;100.00;101305.72;5247568;28;20058;-70
2022/11/06 00:04:42;;;;;;;13.63;5.95;;;;;;;8.16;100.00;101304.22;5246269;28;20067;-70
2022/11/06 00:07:13;;;;;;;11.80;5.50;;;;;;;8.15;100.00;101304.28;5247766;28;20040;-70
2022/11/06 00:09:45;;;;;;;13.50;5.97;;;;;;;8.17;100.00;101305.06;5254945;28;20052;-69
2022/11/06 00:12:17;;;;;;;10.23;5.45;;;;;;;8.08;100.00;101302.97;5243871;28;20032;-70
2022/11/06 00:14:48;;;;;;;12.20;5.18;;;;;;;8.07;100.00;101306.56;5244503;28;20060;-70
2022/11/06 00:17:19;;;;;;;11.70;5.15;;;;;;;8.04;100.00;101303.13;5244835;28;20048;-70
2022/11/06 00:19:51;;;;;;;11.82;5.63;;;;;;;8.04;100.00;101304.94;5250448;28;20025;-70
2022/11/06 00:22:22;;;;;;;11.75;4.95;;;;;;;8.05;100.00;101301.31;5245324;28;20573;-70
2022/11/06 00:24:53;;;;;;;9.05;4.85;;;;;;;8.00;100.00;101304.25;5242750;28;20061;-69
2022/11/06 00:27:25;;;;;;;11.15;5.15;;;;;;;7.98;100.00;101295.53;5244778;28;20040;-69
2022/11/06 00:29:56;;;;;;;11.50;5.10;;;;;;;7.98;100.00;101292.88;5247182;28;20039;-70
2022/11/06 00:32:27;;;;;;;11.93;4.82;;;;;;;7.97;100.00;101288.50;5248384;28;20087;-68
2022/11/06 00:34:58;;;;;;;11.73;4.60;;;;;;;7.94;100.00;101291.34;5246025;28;20025;-68
2022/11/06 00:37:30;;;;;;;11.30;4.93;;;;;;;7.93;100.00;101284.31;5245922;28;20124;-70
2022/11/06 00:40:02;;;;;;;9.98;4.78;;;;;;;7.92;100.00;101273.75;5247506;28;20025;-70
2022/11/06 00:42:33;;;;;;;9.98;5.25;;;;;;;8.01;100.00;101270.56;5244246;28;20056;-69
2022/11/06 00:45:05;;;;;;;10.70;4.40;;;;;;;7.89;100.00;101265.97;5245018;28;20033;-68
2022/11/06 00:47:36;;;;;;;13.13;4.60;;;;;;;7.89;100.00;101268.63;5243892;28;20036;-70
2022/11/06 00:50:08;;;;;;;13.82;4.72;;;;;;;7.88;100.00;101269.56;5246343;28;20512;-69
2022/11/06 00:52:39;;;;;;;8.70;4.70;;;;;;;7.89;100.00;101277.47;5245987;28;20530;-68
2022/11/06 00:55:10;;;;;;;12.07;4.22;;;;;;;7.90;100.00;101276.53;5245696;28;20106;-70
2022/11/06 00:57:42;;;;;;;9.57;4.22;;;;;;;7.84;100.00;101274.22;5244538;28;20025;-70
2022/11/06 01:00:13;;;;;;;11.90;4.50;;;;;;;7.85;100.00;101276.78;5239745;28;20043;-70
2022/11/06 01:02:45;;;;;;;10.35;4.30;;;;;;;7.88;100.00;101285.50;5245290;28;20057;-70
2022/11/06 01:05:16;;;;;;;12.23;4.57;;;;;;;7.86;100.00;101285.59;5244809;28;20098;-70
2022/11/06 01:07:48;;;;;;;11.48;4.22;;;;;;;7.80;100.00;101278.00;5248069;28;20029;-70
2022/11/06 01:10:19;;;;;;;8.63;4.10;;;;;;;7.76;100.00;101277.31;5240734;28;20056;-70
2022/11/06 01:12:50;;;;;;;9.25;4.03;;;;;;;7.78;100.00;101277.22;5245694;28;20033;-70
2022/11/06 01:15:21;;;;;;;10.85;4.20;;;;;;;7.75;100.00;101277.41;5238529;28;20024;-70
2022/11/06 01:17:53;;;;;;;11.63;4.22;;;;;;;7.80;100.00;101265.56;5246871;28;20040;-69
2022/11/06 01:20:24;;;;;;;11.02;4.25;;;;;;;7.78;100.00;101263.94;5246248;28;20124;-69
2022/11/06 01:22:55;;;;;;;11.57;4.47;;;;;;;7.74;100.00;101265.06;5246442;28;20092;-69
2022/11/06 01:25:26;;;;;;;10.15;3.78;;;;;;;7.82;100.00;101265.47;5246780;28;20025;-69
2022/11/06 01:27:58;;;;;;;12.40;3.80;;;;;;;7.82;100.00;101262.81;5247122;28;20112;-69
2022/11/06 01:30:29;;;;;;;10.48;5.05;;;;;;;7.78;100.00;101259.47;5246144;28;20037;-69
2022/11/06 01:33:00;;;;;;;7.60;3.42;;;;;;;7.81;100.00;101254.00;5246627;28;21088;-69
2022/11/06 01:35:32;;;;;;;9.18;3.67;;;;;;;7.84;100.00;101253.84;5244905;28;20544;-69
2022/11/06 01:38:03;;;;;;;15.15;3.78;;;;;;;7.87;100.00;101246.63;5246376;28;20060;-69
2022/11/06 01:40:42;;;;;;;10.10;3.88;;;;;;;7.87;100.00;101236.00;5244730;28;20603;-69
2022/11/06 01:43:19;;;;;;;6.60;3.15;;;;;;;7.85;100.00;101233.44;5247673;28;20106;-69
2022/11/06 01:45:54;;;;;;;10.77;3.83;;;;;;;7.87;100.00;101238.66;5249801;28;20033;-69
2022/11/06 01:48:26;;;;;;;8.93;3.65;;;;;;;7.87;100.00;101239.50;5250226;28;20036;-69
2022/11/06 01:50:58;;;;;;;12.30;3.85;;;;;;;7.93;100.00;101244.44;5249519;28;20032;-69
2022/11/06 01:53:29;;;;;;;10.60;3.72;;;;;;;7.94;100.00;101239.97;5248601;28;20353;-69
2022/11/06 01:56:04;;;;;;;13.52;3.00;;;;;;;7.93;100.00;101238.28;5249794;28;20039;-69
2022/11/06 01:58:39;;;;;;;11.43;4.00;;;;;;;8.00;100.00;101229.00;5249971;28;20574;-69
2022/11/06 02:01:11;;;;;;;8.15;2.95;;;;;;;7.99;100.00;101229.94;5245847;28;20041;-69
2022/11/06 02:03:54;;;;;;;12.02;3.35;;;;;;;8.02;100.00;101230.63;5248109;28;20032;-69
2022/11/06 02:06:25;;;;;;;8.50;3.20;;;;;;;8.04;100.00;101233.19;5248095;28;20072;-70
2022/11/06 02:08:57;;;;;;;11.35;3.58;;;;;;;8.06;100.00;101228.63;5250083;28;20112;-69
2022/11/06 02:11:28;;;;;;;14.65;4.00;;;;;;;8.08;100.00;101220.59;5248639;28;20032;-69
2022/11/06 02:14:13;;;;;;;12.65;4.40;;;;;;;8.08;100.00;101217.94;5232325;28;20029;-70
2022/11/06 02:16:51;;;;;;;;;;;;;;;8.22;100.00;101225.91;5242083;28;20498;-69
2022/11/06 02:19:28;;;;;;;10.07;3.22;;;;;;;8.16;100.00;101227.13;5247997;28;19920;-70
2022/11/06 02:22:33;;;;;;;9.00;2.90;;;;;;;8.21;100.00;101221.56;5249326;28;20028;-69
2022/11/06 02:25:25;;;;;;;10.48;2.90;;;;;;;8.19;100.00;101211.00;5246324;28;20108;-69
2022/11/06 02:28:02;;;;;;;10.77;2.88;;;;;;;8.19;100.00;101212.81;5246802;28;20033;-69
2022/11/06 02:30:40;;;;;;;8.40;2.75;;;;;;;8.19;100.00;101207.50;5247047;28;20021;-69
2022/11/06 02:33:20;;;;;;;8.80;3.30;;;;;;;8.19;100.00;101203.03;5246948;28;20605;-68
2022/11/06 02:35:59;;;;;;;13.40;3.47;;;;;;;8.17;100.00;101206.72;5247302;28;20028;-70
2022/11/06 02:38:41;;;;;;;11.85;3.13;;;;;;;8.12;100.00;101199.03;5252921;28;20033;-70
2022/11/06 02:41:19;;;;;;;9.50;2.80;;;;;;;8.12;100.00;101196.38;5247068;28;20029;-69
2022/11/06 02:44:01;;;;;;;8.90;3.33;;;;;;;8.13;100.00;101197.22;5249674;28;20524;-71
2022/11/06 02:46:38;;;;;;;7.60;2.72;;;;;;;8.10;100.00;101200.09;5247438;28;20024;-69
2022/11/06 02:49:24;;;;;;;7.68;2.63;;;;;;;8.13;100.00;101199.88;5250303;28;20025;-71
2022/11/06 02:52:03;;;;;;;11.15;2.80;;;;;;;8.15;100.00;101195.31;5239842;28;20269;-71
2022/11/06 02:54:39;;;;;;;12.88;3.70;;;;;;;8.13;100.00;101207.84;5242076;28;20525;-70
2022/11/06 02:57:14;;;;;;;9.02;2.80;;;;;;;8.15;100.00;101200.63;5246690;28;20384;-70
2022/11/06 03:00:00;;;;;;;10.18;3.08;;;;;;;8.14;100.00;101193.63;5247057;28;20060;-69
2022/11/06 03:02:36;;;;;;;10.82;3.03;;;;;;;8.13;100.00;101203.41;5243057;28;20446;-70
2022/11/06 03:05:23;;;;;;;11.77;3.00;;;;;;;8.10;100.00;101208.06;5245996;28;20625;-70
2022/11/06 03:08:13;;;;;;;11.35;2.85;;;;;;;8.17;100.00;101214.69;5245788;28;20119;-71
2022/11/06 03:10:55;;;;;;;9.18;3.05;;;;;;;8.13;100.00;101213.16;5246543;28;20391;-70
2022/11/06 03:13:35;;;;;;;7.78;2.92;;;;;;;8.12;100.00;101228.25;5244196;28;20024;-69
2022/11/06 03:16:27;;;;;;;10.88;2.90;;;;;;;8.15;100.00;101212.16;5246550;28;20024;-70
2022/11/06 03:19:06;;;;;;;10.38;3.10;;;;;;;8.16;100.00;101194.38;5245228;28;20024;-70
2022/11/06 03:22:01;;;;;;;9.70;3.08;;;;;;;8.21;100.00;101197.63;5243534;28;20465;-71
2022/11/06 03:24:38;;;;;;;8.88;2.92;;;;;;;8.15;100.00;101196.19;5246143;28;20025;-70
2022/11/06 03:27:21;;;;;;;10.27;2.95;;;;;;;8.18;100.00;101180.06;5242294;28;20036;-70
2022/11/06 03:30:19;;;;;;;7.60;2.92;;;;;;;8.23;100.00;101179.78;5246816;28;20040;-70
2022/11/06 03:33:09;;;;;;;9.55;3.58;;;;;;;8.17;100.00;101165.06;5238662;28;21990;-70
2022/11/06 03:35:55;;;;;;;11.85;2.80;;;;;;;8.18;100.00;101165.91;5243451;28;20040;-71
2022/11/06 03:38:32;;;;;;;9.85;2.85;;;;;;;8.13;100.00;101168.88;5243309;28;20059;-69
2022/11/06 03:41:09;;;;;;;10.77;3.40;;;;;;;8.08;100.00;101159.47;5247406;28;20128;-69
2022/11/06 03:43:44;;;;;;;10.70;3.22;;;;;;;8.12;100.00;101155.66;5245643;28;20116;-71
2022/11/06 03:46:19;;;;;;;11.00;3.08;;;;;;;8.07;100.00;101149.75;5245144;28;20132;-71
2022/11/06 03:48:59;;;;;;;10.18;3.58;;;;;;;8.10;100.00;101147.78;5241979;28;20519;-71
2022/11/06 03:51:35;;;;;;;9.63;3.20;;;;;;;8.14;100.00;101143.97;5246178;28;20036;-70
2022/11/06 03:54:14;;;;;;;10.75;3.85;;;;;;;8.16;100.00;101138.56;5247830;28;20045;-69
2022/11/06 03:56:56;;;;;;;8.50;2.55;;;;;;;8.16;100.00;101126.13;5246431;28;20749;-69
2022/11/06 03:59:33;;;;;;;9.00;3.05;;;;;;;8.22;100.00;101120.44;5238527;28;20770;-71
2022/11/06 04:02:04;;;;;;;10.57;2.83;;;;;;;8.26;100.00;101121.09;5248544;28;20029;-71
2022/11/06 04:04:50;;;;;;;12.23;2.90;;;;;;;8.25;100.00;101124.72;5245853;28;20491;-70
2022/11/06 04:07:25;;;;;;;7.47;2.60;;;;;;;8.22;100.00;101123.09;5248751;28;21155;-69
2022/11/06 04:15:51;;;;;;;10.13;2.95;;;;;;;8.26;100.00;101121.09;5246040;28;20036;-70
2022/11/06 04:18:22;;;;;;;10.77;2.80;;;;;;;8.22;100.00;101112.44;5245679;28;20091;-69
2022/11/06 04:21:22;;;;;;;9.75;3.25;;;;;;;8.25;100.00;101106.97;5246135;28;20140;-71
2022/11/06 04:27:25;;;;;;;9.55;3.08;;;;;;;8.26;100.00;101091.84;5247031;28;20049;-70
2022/11/06 04:30:12;;;;;;;8.43;2.80;;;;;;;8.27;100.00;101090.06;5249770;28;20037;-70
2022/11/06 04:32:46;;;;;;;9.02;2.85;;;;;;;8.24;100.00;101091.94;5241127;28;20033;-71
2022/11/06 04:35:38;;;;;;;9.27;2.72;;;;;;;8.27;100.00;101090.91;5244531;28;20017;-70
2022/11/06 04:38:36;;;;;;;6.32;2.83;;;;;;;8.24;100.00;101091.94;5247215;28;20437;-70
2022/11/06 04:41:22;;;;;;;7.72;2.60;;;;;;;8.30;100.00;101082.72;5242453;28;20087;-70
2022/11/06 04:43:58;;;;;;;8.80;2.88;;;;;;;8.21;100.00;101086.84;5246133;28;20040;-70
2022/11/06 04:46:36;;;;;;;9.82;3.00;;;;;;;8.22;100.00;101087.69;5246149;28;20407;-70
2022/11/06 04:49:09;;;;;;;12.60;3.25;;;;;;;8.15;100.00;101081.91;5245804;28;20122;-69
2022/11/06 04:51:44;;;;;;;9.52;3.50;;;;;;;8.22;100.00;101083.22;5248670;28;20106;-70
2022/11/06 04:54:16;;;;;;;10.45;2.80;;;;;;;8.14;100.00;101084.66;5244737;28;21068;-70
2022/11/06 04:56:47;;;;;;;9.73;2.88;;;;;;;8.09;100.00;101084.94;5230569;28;20123;-70
2022/11/06 04:59:19;;;;;;;8.73;3.03;;;;;;;8.18;100.00;101073.72;5241667;28;20025;-70
2022/11/06 05:01:50;;;;;;;13.02;3.67;;;;;;;8.09;100.00;101070.81;5243850;28;20083;-70
2022/11/06 05:04:21;;;;;;;10.18;3.10;;;;;;;8.05;100.00;101060.38;5243066;28;20091;-70
2022/11/06 05:06:52;;;;;;;10.50;3.00;;;;;;;8.11;100.00;101067.13;5246392;28;20028;-70
2022/11/06 05:09:24;;;;;;;10.15;2.88;;;;;;;8.11;100.00;101063.59;5244816;28;20368;-70
2022/11/06 05:11:55;;;;;;;8.68;2.95;;;;;;;8.02;100.00;101068.53;5244713;28;20143;-71
2022/11/06 05:14:27;;;;;;;7.22;2.75;;;;;;;8.01;100.00;101050.03;5242762;28;20395;-68
2022/11/06 05:16:59;;;;;;;7.35;2.88;;;;;;;8.02;100.00;101054.41;5247003;28;20035;-68
2022/11/06 05:19:30;;;;;;;7.32;3.35;;;;;;;8.04;100.00;101053.34;5248272;28;20391;-68
2022/11/06 05:24:51;;;;;;;5.65;2.78;;;;;;;7.98;100.00;101051.06;5247051;28;20041;-67
2022/11/06 05:27:22;;;;;;;8.57;3.00;;;;;;;7.95;100.00;101048.59;5247950;28;20041;-68
2022/11/06 05:29:53;;;;;;;6.57;2.85;;;;;;;7.97;100.00;101051.16;5247814;28;20379;-69
2022/11/06 05:32:25;;;;;;;8.32;3.08;;;;;;;7.93;100.00;101041.69;5249116;28;20426;-68
2022/11/06 05:34:56;;;;;;;7.57;3.05;;;;;;;7.96;100.00;101047.66;5246281;28;20107;-68
2022/11/06 05:37:27;;;;;;;10.40;3.10;;;;;;;7.96;100.00;101045.00;5251709;28;20040;-68
2022/11/06 05:39:59;;;;;;;6.97;2.80;;;;;;;7.96;100.00;101045.00;5248895;28;20486;-68
2022/11/06 05:42:30;;;;;;;8.88;2.80;;;;;;;7.96;100.00;101038.84;5248819;28;20728;-68
2022/11/06 05:45:01;;;;;;;7.50;2.88;;;;;;;7.98;100.00;101032.47;5248776;28;20045;-69
2022/11/06 05:47:33;;;;;;;5.90;2.72;;;;;;;7.96;100.00;101039.69;5254736;28;20440;-68
2022/11/06 05:50:07;;;;;;;8.60;2.90;;;;;;;7.95;100.00;101043.28;5251945;28;20138;-68
2022/11/06 05:52:38;;;;;;;7.47;2.78;;;;;;;7.93;100.00;101039.03;5250579;28;20036;-69
2022/11/06 05:55:10;;;;;;;10.00;3.00;;;;;;;7.91;100.00;101036.47;5252806;28;20082;-68
2022/11/06 05:57:41;;;;;;;8.93;3.08;;;;;;;7.95;100.00;101039.78;5253838;28;20047;-71
2022/11/06 06:00:13;;;;;;;10.32;3.55;;;;;;;7.94;100.00;101030.09;5250858;28;20028;-68
2022/11/06 06:02:44;;;;;;;7.55;2.80;;;;;;;7.93;100.00;101023.94;5255957;28;20036;-69
2022/11/06 06:05:16;;;;;;;7.35;2.65;;;;;;;7.89;100.00;101017.09;5251139;28;20086;-70
2022/11/06 06:07:47;;;;;;;10.13;3.88;;;;;;;7.91;100.00;101025.84;5251121;28;20029;-70
2022/11/06 06:10:18;;;;;;;8.30;2.80;;;;;;;7.91;100.00;101025.84;5248702;28;20522;-70
2022/11/06 06:12:50;;;;;;;8.27;3.38;;;;;;;7.89;100.00;101030.38;5247344;28;20674;-70
2022/11/06 06:15:21;;;;;;;9.75;2.83;;;;;;;7.92;100.00;101019.59;5248382;28;20029;-70
2022/11/06 06:17:52;;;;;;;7.55;2.70;;;;;;;7.90;100.00;101017.94;5251034;28;20505;-70
2022/11/06 06:20:24;;;;;;;7.38;2.92;;;;;;;7.97;100.00;101009.50;5249953;28;20390;-69
2022/11/06 06:22:57;;;;;;;7.75;2.90;;;;;;;7.97;100.00;101009.50;5249637;28;20029;-70
2022/11/06 06:25:29;;;;;;;8.07;2.75;;;;;;;7.89;100.00;101014.44;5245805;28;20025;-70
2022/11/06 06:28:00;;;;;;;8.75;2.72;;;;;;;7.89;100.00;101010.94;5250279;28;20078;-70
2022/11/06 06:30:32;;;;;;;8.50;2.60;;;;;;;7.88;100.00;101014.53;5248701;28;20479;-70
2022/11/06 06:33:05;;;;;;;13.90;3.53;;;;;;;7.90;100.00;101017.94;5228507;28;20024;-70
2022/11/06 06:35:36;;;;;;;8.00;2.78;;;;;;;7.87;100.00;101019.00;5247248;28;20048;-70
2022/11/06 06:38:08;;;;;;;7.63;2.42;;;;;;;7.89;100.00;101026.88;5249680;28;20099;-70
2022/11/06 06:40:39;;;;;;;8.32;3.22;;;;;;;7.89;100.00;101022.41;5247622;28;20021;-69
2022/11/06 06:43:10;;;;;;;7.22;2.50;;;;;;;7.90;100.00;101026.81;5250194;28;20376;-70
2022/11/06 06:45:42;;;;;;;6.97;2.33;;;;;;;7.96;100.00;101033.53;5248985;28;20328;-70
2022/11/06 06:48:13;;;;;;;7.65;2.60;;;;;;;7.92;100.00;101026.69;5250317;28;20060;-69
2022/11/06 06:50:44;;;;;;;9.70;3.00;;;;;;;7.92;100.00;101026.69;5247386;28;20064;-70
2022/11/06 06:53:15;;;;;;;8.07;2.42;;;;;;;7.91;100.00;101017.00;5247963;28;20044;-69
2022/11/06 06:55:47;;;;;;;10.18;2.50;;;;;;;7.93;100.00;101018.63;5248732;28;20112;-70
2022/11/06 06:58:18;;;;;;;6.07;2.60;;;;;;;8.01;100.00;101004.84;5249175;28;20628;-69
2022/11/06 07:00:49;;;;;;;8.70;3.10;;;;;;;7.99;100.00;101002.28;5250993;28;20029;-70
2022/11/06 07:03:21;;;;;;;6.35;2.58;;;;;;;8.03;100.00;101006.47;5247368;28;20064;-69
2022/11/06 07:05:52;;;;;;;7.95;2.30;;;;;;;8.16;100.00;101003.03;5250764;28;20028;-70
2022/11/06 07:08:25;;;;;;;8.82;2.80;;;;;;;8.13;100.00;101009.41;5249002;28;20032;-70
2022/11/06 07:11:04;;;;;;;8.05;2.60;;;;;;;8.19;100.00;101006.34;5249180;28;20040;-70
2022/11/06 07:13:36;;;;;;;9.23;2.55;;;;;;;8.28;100.00;101010.19;5249011;28;20041;-70
2022/11/06 07:16:10;;;;;;;8.65;2.65;;;;;;;8.29;100.00;101013.75;5251544;28;20091;-69
2022/11/06 07:18:41;;;;;;;9.00;2.53;;;;;;;8.35;100.00;101000.88;5247570;28;20086;-70
2022/11/06 07:21:12;;;;;;;7.35;2.17;;;;;;;8.41;100.00;101007.63;5248331;28;20017;-70
2022/11/06 07:23:45;;;;;;;8.38;2.42;;;;;;;8.48;100.00;101006.31;5249777;28;20461;-70
2022/11/06 07:26:16;;;;;;;7.68;2.38;;;;;;;8.52;100.00;100993.66;5249523;28;20459;-70
2022/11/06 07:28:47;;;;;;;6.72;2.35;;;;;;;8.64;100.00;101011.47;5246801;28;20087;-70
2022/11/06 07:31:18;;;;;;;7.65;2.17;;;;;;;8.71;100.00;101015.44;5246411;28;20029;-70
2022/11/06 07:33:50;;;;;;;5.00;2.22;;;;;;;8.74;100.00;101009.03;5247795;28;20060;-69
2022/11/06 07:36:21;;;;;;;9.15;2.30;;;;;;;8.73;100.00;101013.53;5244189;28;20037;-70
2022/11/06 07:38:52;;;;;;;7.03;2.53;;;;;;;8.81;100.00;101013.84;5241703;28;20037;-70
2022/11/06 07:41:23;;;;;;;6.40;2.28;;;;;;;8.85;100.00;101011.00;5245165;28;20041;-69
2022/11/06 07:43:55;;;;;;;7.07;2.20;;;;;;;8.92;100.00;100996.34;5249210;28;20123;-68
2022/11/06 07:46:26;;;;;;;8.55;2.67;;;;;;;8.95;100.00;100988.13;5251315;28;20381;-70
2022/11/06 07:48:57;;;;;;;10.02;2.90;;;;;;;9.00;100.00;100988.69;5232311;28;20041;-70
2022/11/06 07:51:28;;;;;;;8.23;2.60;;;;;;;9.03;100.00;100983.13;5251818;28;20029;-69
2022/11/06 07:54:00;;;;;;;10.02;2.90;;;;;;;9.07;100.00;100981.13;5248770;28;20138;-70
2022/11/06 07:56:31;;;;;;;9.43;2.83;;;;;;;9.11;100.00;100980.84;5248032;28;20033;-70
2022/11/06 07:59:03;;;;;;;9.70;3.50;;;;;;;9.12;100.00;100976.34;5250169;28;20106;-69
2022/11/06 08:01:34;;;;;;;11.05;3.83;;;;;;;9.18;100.00;100967.94;5251472;28;20025;-69
2022/11/06 08:04:05;;;;;;;10.27;4.30;;;;;;;9.22;100.00;100982.75;5247981;28;20055;-69
2022/11/06 08:06:36;;;;;;;11.30;6.20;;;;;;;9.25;100.00;100981.69;5242427;28;20078;-68
2022/11/06 08:09:08;;;;;;;10.32;4.03;;;;;;;9.28;100.00;100984.13;5249240;28;20036;-68
2022/11/06 08:11:39;;;;;;;8.35;3.78;;;;;;;9.29;100.00;100976.03;5244690;28;20040;-69
2022/11/06 08:14:10;;;;;;;8.90;4.18;;;;;;;9.37;100.00;100980.84;5242884;28;20037;-69
2022/11/06 08:16:41;;;;;;;8.10;2.85;;;;;;;9.39;100.00;100978.91;5243804;28;20037;-70
2022/11/06 08:19:13;;;;;;;9.07;3.30;;;;;;;9.41;100.00;100974.34;5245616;28;20044;-70
2022/11/06 08:21:44;;;;;;;6.80;1.98;;;;;;;9.45;100.00;100967.00;5242681;28;20060;-69
2022/11/06 08:24:15;;;;;;;8.30;3.03;;;;;;;9.51;100.00;100961.22;5249275;28;20026;-70
2022/11/06 08:26:47;;;;;;;5.25;1.90;;;;;;;9.66;100.00;100972.63;5243945;28;20028;-70
2022/11/06 08:29:18;;;;;;;7.80;2.55;;;;;;;9.61;100.00;100962.31;5246698;28;20033;-70
2022/11/06 08:31:49;;;;;;;6.90;2.10;;;;;;;9.59;100.00;100966.88;5251361;28;20028;-69
2022/11/06 08:34:20;;;;;;;7.78;2.63;;;;;;;9.66;100.00;100954.81;5249652;28;20649;-69
2022/11/06 08:36:52;;;;;;;7.75;2.30;;;;;;;9.74;100.00;100952.47;5241311;28;20115;-70
2022/11/06 08:39:24;;;;;;;7.97;2.00;;;;;;;9.85;100.00;100957.03;5244404;28;20540;-70
2022/11/06 08:41:55;;;;;;;6.40;2.20;;;;;;;9.89;100.00;100950.50;5249317;28;20064;-70
2022/11/06 08:44:26;;;;;;;7.80;1.90;;;;;;;9.87;100.00;100952.44;5253933;28;20033;-69
2022/11/06 08:46:57;;;;;;;7.18;2.00;;;;;;;9.91;100.00;100943.25;5253106;28;20059;-70
2022/11/06 08:49:29;;;;;;;8.00;2.08;;;;;;;9.96;100.00;100946.44;5251057;28;20386;-70
2022/11/06 08:52:00;;;;;;;8.00;2.00;;;;;;;9.95;100.00;100941.22;5250749;28;20029;-70
2022/11/06 08:54:31;;;;;;;5.63;1.70;;;;;;;10.01;100.00;100932.81;5254929;28;20041;-70
2022/11/06 08:57:03;;;;;;;5.63;1.85;;;;;;;10.05;100.00;100934.28;5249735;28;20039;-70
2022/11/06 08:59:34;;;;;;;7.80;2.03;;;;;;;10.10;100.00;100929.44;5250864;28;20083;-70
2022/11/06 09:02:05;;;;;;;5.03;1.58;;;;;;;10.15;100.00;100939.78;5252771;28;20751;-71
2022/11/06 09:04:36;;;;;;;5.68;2.10;;;;;;;10.20;100.00;100926.94;5255712;28;20515;-71
2022/11/06 09:07:08;;;;;;;5.20;1.70;;;;;;;10.30;100.00;100927.16;5256377;28;20425;-70
2022/11/06 09:09:39;;;;;;;4.53;1.50;;;;;;;10.29;100.00;100917.44;5256736;28;20648;-70
2022/11/06 09:12:10;;;;;;;5.55;1.80;;;;;;;10.36;100.00;100913.38;5250070;28;20044;-70
2022/11/06 09:14:42;;;;;;;6.85;2.35;;;;;;;10.35;100.00;100907.16;5253689;28;20082;-69
2022/11/06 09:17:13;;;;;;;6.40;1.83;;;;;;;10.37;100.00;100897.28;5253496;28;20036;-70
2022/11/06 09:19:44;;;;;;;5.72;1.50;;;;;;;10.44;100.00;100897.66;5254674;28;20048;-69
2022/11/06 09:22:16;;;;;;;6.85;1.58;;;;;;;10.50;100.00;100899.00;5250808;28;20487;-70
2022/11/06 09:24:48;;;;;;;4.85;1.30;;;;;;;10.52;100.00;100895.25;5252159;28;20028;-70
2022/11/06 09:27:19;;;;;;;6.97;1.63;;;;;;;10.55;100.00;100888.84;5246936;28;20141;-70
2022/11/06 09:29:50;;;;;;;5.57;1.27;;;;;;;10.58;100.00;100881.47;5256531;28;20547;-70
2022/11/06 09:32:23;;;;;;;5.07;1.70;;;;;;;10.62;100.00;100879.38;5252987;28;20584;-70
2022/11/06 09:34:54;;;;;;;6.68;1.50;;;;;;;10.66;100.00;100856.00;5252951;28;20024;-69
2022/11/06 09:37:25;;;;;;;4.68;1.40;;;;;;;10.66;100.00;100877.34;5255756;28;20029;-70
2022/11/06 09:39:57;;;;;;;8.48;1.73;;;;;;;10.59;100.00;100875.13;5253116;28;20047;-70
2022/11/06 09:42:41;;;;;;;5.65;1.60;;;;;;;10.62;100.00;100873.22;5251622;28;20082;-70
2022/11/06 09:45:21;;;;;;;5.63;1.70;;;;;;;10.65;100.00;100873.81;5253277;28;20048;-70
2022/11/06 09:48:03;;;;;;;6.50;1.60;;;;;;;10.75;100.00;100872.13;5251934;28;20497;-69
2022/11/06 09:50:45;;;;;;;5.95;1.70;;;;;;;10.82;100.00;100869.88;5241830;28;20037;-70
2022/11/06 09:53:23;;;;;;;5.47;1.40;;;;;;;10.89;100.00;100878.22;5250229;28;20136;-70
2022/11/06 09:55:56;;;;;;;3.85;1.30;;;;;;;10.95;100.00;100875.13;5251016;28;20094;-70
2022/11/06 09:58:37;;;;;;;5.23;1.63;;;;;;;10.99;100.00;100868.56;5251460;28;20086;-70
2022/11/06 10:01:18;;;;;;;5.45;1.67;;;;;;;10.97;100.00;100863.34;5253719;28;20090;-70
2022/11/06 10:03:57;;;;;;;6.05;1.70;;;;;;;11.05;100.00;100865.41;5250606;28;20041;-69
2022/11/06 10:06:29;;;;;;;6.97;1.80;;;;;;;11.07;100.00;100859.94;5253267;28;20808;-69
2022/11/06 10:09:04;;;;;;;5.13;1.52;;;;;;;11.13;100.00;100857.63;5258042;28;20378;-70
2022/11/06 10:11:58;;;;;;;5.80;1.50;;;;;;;11.22;100.00;100852.53;5249845;28;20041;-69
2022/11/06 10:14:51;;;;;;;6.20;1.83;;;;;;;11.25;100.00;100846.97;5250860;28;20033;-71
2022/11/06 10:17:42;;;;;;;5.15;1.10;;;;;;;11.24;100.00;100859.47;5254644;28;20036;-70
2022/11/06 10:20:20;;;;;;;5.43;1.75;;;;;;;11.18;100.00;100854.63;5255376;28;20555;-70
2022/11/06 10:23:02;;;;;;;7.32;1.70;;;;;;;11.14;100.00;100843.31;5254200;28;20029;-70
2022/11/06 10:25:44;;;;;;;6.03;1.50;;;;;;;11.10;100.00;100844.53;5255843;28;20348;-70
2022/11/06 10:28:37;;;;;;;5.47;1.83;;;;;;;11.07;100.00;100839.44;5252939;28;20542;-70
2022/11/06 10:31:23;;;;;;;4.65;1.48;;;;;;;11.01;100.00;100839.91;5250090;28;20106;-70
2022/11/06 10:34:00;;;;;;;7.53;1.50;;;;;;;11.01;100.00;100842.59;5254800;28;20816;-70
2022/11/06 10:36:40;;;;;;;5.90;1.70;;;;;;;11.06;100.00;100826.19;5255669;28;20033;-70
2022/11/06 10:39:17;;;;;;;7.40;1.35;;;;;;;11.07;100.00;100835.91;5254241;28;20048;-70
2022/11/06 10:41:55;;;;;;;7.55;1.50;;;;;;;11.12;100.00;100823.91;5250400;28;20522;-70
2022/11/06 10:44:36;;;;;;;6.78;1.48;;;;;;;11.18;100.00;100818.06;5252651;28;20043;-70
2022/11/06 10:47:20;;;;;;;5.68;1.75;;;;;;;11.27;100.00;100813.81;5251850;28;20033;-71
2022/11/06 10:49:58;;;;;;;6.05;1.40;;;;;;;11.37;100.00;100805.91;5251602;28;20498;-70
2022/11/06 10:52:37;;;;;;;5.38;1.17;;;;;;;11.36;100.00;100794.38;5254433;28;20487;-70
2022/11/06 10:55:30;;;;;;;6.03;1.48;;;;;;;11.43;100.00;100793.88;5249062;28;20044;-71
2022/11/06 10:58:15;;;;;;;5.07;1.17;;;;;;;11.48;100.00;100786.34;5256345;28;20037;-70
2022/11/06 11:00:49;;;;;;;5.80;1.48;;;;;;;11.53;100.00;100784.16;5248048;28;20108;-70
2022/11/06 11:03:26;;;;;;;7.78;1.45;;;;;;;11.57;100.00;100775.75;5247270;28;20071;-71
2022/11/06 11:05:58;;;;;;;6.25;1.30;;;;;;;11.62;100.00;100777.19;5250469;28;20548;-70
2022/11/06 11:08:29;;;;;;;6.80;1.77;;;;;;;11.67;100.00;100766.97;5248231;28;20561;-70
2022/11/06 11:11:24;;;;;;;6.05;1.52;;;;;;;11.70;100.00;100761.41;5250954;28;20388;-70
2022/11/06 11:13:56;;;;;;;5.90;2.00;;;;;;;11.72;100.00;100759.44;5249119;28;20353;-70
2022/11/06 11:16:32;;;;;;;6.65;1.40;;;;;;;11.71;100.00;100765.75;5232349;28;20086;-70
2022/11/06 11:19:24;;;;;;;4.20;1.45;;;;;;;11.73;100.00;100769.13;5254939;28;20036;-69
2022/11/06 11:22:01;;;;;;;7.40;1.40;;;;;;;11.68;100.00;100764.19;5245700;28;20128;-69
2022/11/06 11:24:32;;;;;;;4.43;1.30;;;;;;;11.73;100.00;100758.44;5251328;28;20032;-70
2022/11/06 11:27:06;;;;;;;5.07;1.73;;;;;;;11.70;100.00;100748.88;5247935;28;20359;-70
2022/11/06 11:29:46;;;;;;;5.33;1.40;;;;;;;11.71;100.00;100744.38;5250671;28;21031;-70
2022/11/06 11:32:20;;;;;;;5.10;1.42;;;;;;;11.69;100.00;100739.13;5247347;28;20086;-70
2022/11/06 11:34:54;;;;;;;5.00;1.30;;;;;;;11.73;100.00;100734.41;5254927;28;20024;-70
2022/11/06 11:37:31;;;;;;;5.28;1.38;;;;;;;11.77;100.00;100735.84;5253649;28;20067;-71
2022/11/06 11:40:27;;;;;;;8.48;1.92;;;;;;;11.80;100.00;100742.75;5251269;28;20069;-70
2022/11/06 11:43:20;;;;;;;6.85;1.25;;;;;;;11.74;100.00;100734.28;5249051;28;20099;-70
2022/11/06 11:46:06;;;;;;;4.90;1.45;;;;;;;11.80;100.00;100722.22;5243414;28;20041;-71
2022/11/06 11:48:52;;;;;;;5.18;1.30;;;;;;;11.72;100.00;100722.88;5250229;28;20037;-70
2022/11/06 11:51:27;;;;;;;5.70;1.38;;;;;;;11.71;100.00;100731.00;5250914;28;20514;-70
2022/11/06 11:54:03;;;;;;;5.30;1.45;;;;;;;11.69;100.00;100730.28;5254246;28;20053;-70
2022/11/06 11:56:45;;;;;;;8.35;1.45;;;;;;;11.71;100.00;100720.31;5250939;28;20501;-70
2022/11/06 11:59:29;;;;;;;5.47;1.20;;;;;;;11.73;100.00;100721.03;5249054;28;20071;-70
2022/11/06 12:02:22;;;;;;;6.38;2.40;;;;;;;11.73;100.00;100711.19;5245430;28;20180;-71
2022/11/06 12:05:04;;;;;;;7.38;1.50;;;;;;;11.72;100.00;100697.97;5245852;28;20047;-70
2022/11/06 12:07:39;;;;;;;7.93;2.05;;;;;;;11.66;100.00;100685.97;5251595;28;20059;-71
2022/11/06 12:10:42;;;;;;;5.95;1.70;;;;;;;11.68;100.00;100684.00;5251740;28;20064;-70
2022/11/06 12:13:19;;;;;;;4.60;1.40;;;;;;;11.70;100.00;100681.22;5246949;28;20029;-69